createdAt,value
2018-05-18T04:02:46.170Z,20.33
2018-05-18T04:05:24.273Z,20.07
2018-05-18T04:08:02.393Z,20.17
2018-05-18T04:10:28.155Z,27.17
2018-05-18T04:12:53.917Z,20.53
2018-05-18T04:15:19.684Z,20.20
2018-05-18T04:17:45.460Z,17.83
2018-05-18T04:20:11.218Z,20.63
2018-05-18T04:22:37.370Z,21.10
2018-05-18T04:25:03.129Z,16.50
2018-05-18T04:27:28.897Z,30.30
2018-05-18T04:29:54.645Z,21.63
2018-05-18T04:32:20.460Z,19.17
2018-05-18T04:34:46.218Z,20.83
2018-05-18T04:37:11.990Z,17.67
2018-05-18T04:39:37.764Z,21.67
2018-05-18T04:42:03.527Z,14.90
2018-05-18T04:44:29.290Z,14.50
2018-05-18T04:46:55.047Z,18.97
2018-05-18T04:49:22.323Z,15.50
2018-05-18T04:51:53.832Z,15.13
2018-05-18T04:54:19.597Z,15.03
2018-05-18T04:56:49.088Z,17.13
2018-05-18T04:59:15.149Z,24.40
2018-05-18T05:01:42.547Z,24.60
2018-05-18T05:04:12.040Z,25.53
2018-05-18T05:06:41.604Z,24.80
2018-05-18T05:09:08.926Z,23.30
2018-05-18T05:11:37.865Z,24.67
2018-05-18T05:14:05.042Z,28.23
2018-05-18T05:16:32.432Z,21.60
2018-05-18T05:19:00.993Z,22.47
2018-05-18T05:21:31.405Z,28.90
2018-05-18T05:24:01.520Z,29.23
2018-05-18T05:26:27.376Z,30.13
2018-05-18T05:28:53.226Z,22.43
2018-05-18T05:31:22.061Z,26.27
2018-05-18T05:33:47.830Z,22.50
2018-05-18T05:36:13.590Z,22.80
2018-05-18T05:38:39.338Z,31.43
2018-05-18T05:41:05.113Z,29.20
2018-05-18T05:43:30.869Z,29.07
2018-05-18T05:45:56.642Z,24.03
2018-05-18T05:48:22.397Z,22.53
2018-05-18T05:50:48.205Z,29.73
2018-05-18T05:53:13.981Z,21.63
2018-05-18T05:55:39.727Z,24.57
2018-05-18T05:58:05.494Z,26.47
2018-05-18T06:00:31.275Z,32.60
2018-05-18T06:02:57.025Z,22.20
2018-05-18T06:05:22.785Z,29.30
2018-05-18T06:07:48.557Z,26.47
2018-05-18T06:10:14.346Z,26.33
2018-05-18T06:12:40.160Z,21.43
2018-05-18T06:15:05.902Z,22.77
2018-05-18T06:17:31.666Z,22.50
2018-05-18T06:19:57.420Z,20.00
2018-05-18T06:22:23.174Z,22.20
2018-05-18T06:24:48.937Z,31.57
2018-05-18T06:27:14.697Z,32.97
2018-05-18T06:29:40.457Z,27.93
2018-05-18T06:32:06.229Z,23.37
2018-05-18T06:34:32.025Z,25.67
2018-05-18T06:36:57.745Z,22.53
2018-05-18T06:39:23.498Z,19.50
2018-05-18T06:41:49.257Z,26.07
2018-05-18T06:44:15.010Z,28.60
2018-05-18T06:46:40.775Z,18.90
2018-05-18T06:49:06.538Z,25.30
2018-05-18T06:51:32.310Z,19.50
2018-05-18T06:53:58.066Z,20.77
2018-05-18T06:56:23.821Z,22.40
2018-05-18T06:58:49.617Z,19.87
2018-05-18T07:01:15.421Z,22.70
2018-05-18T07:03:41.193Z,23.67
2018-05-18T07:06:06.953Z,25.30
2018-05-18T07:08:32.709Z,27.03
2018-05-18T07:10:58.454Z,20.83
2018-05-18T07:13:24.219Z,25.13
2018-05-18T07:15:49.961Z,22.77
2018-05-18T07:18:15.736Z,22.27
2018-05-18T07:20:41.494Z,21.30
2018-05-18T07:23:07.320Z,22.73
2018-05-18T07:25:33.009Z,16.40
2018-05-18T07:27:58.758Z,25.10
2018-05-18T07:30:24.526Z,15.53
2018-05-18T07:32:50.358Z,19.07
2018-05-18T07:35:16.064Z,20.77
2018-05-18T07:37:41.811Z,19.23
2018-05-18T07:40:07.662Z,18.47
2018-05-18T07:42:33.428Z,23.63
2018-05-18T07:44:59.181Z,22.37
2018-05-18T07:47:24.946Z,19.90
2018-05-18T07:49:50.705Z,20.30
2018-05-18T07:52:16.465Z,16.50
2018-05-18T07:54:42.230Z,18.67
2018-05-18T07:57:07.981Z,20.33
2018-05-18T07:59:33.765Z,22.83
2018-05-18T08:01:59.498Z,18.30
2018-05-18T08:04:25.253Z,19.63
2018-05-18T08:06:51.022Z,22.03
2018-05-18T08:09:16.774Z,24.73
2018-05-18T08:11:42.541Z,16.03
2018-05-18T08:14:08.289Z,18.60
2018-05-18T08:16:34.050Z,22.90
2018-05-18T08:18:59.801Z,21.30
2018-05-18T08:21:25.567Z,18.63
2018-05-18T08:23:51.325Z,23.70
2018-05-18T08:26:17.085Z,26.63
2018-05-18T08:28:55.138Z,24.00
2018-05-18T08:31:20.908Z,22.57
2018-05-18T08:33:46.652Z,25.93
2018-05-18T08:36:12.412Z,22.10
2018-05-18T08:38:38.165Z,22.43
2018-05-18T08:41:03.929Z,21.80
2018-05-18T08:43:29.697Z,20.20
2018-05-18T08:45:55.466Z,17.23
2018-05-18T08:48:21.221Z,20.83
2018-05-18T08:50:46.977Z,15.67
2018-05-18T08:53:12.763Z,23.33
2018-05-18T08:55:38.538Z,18.37
2018-05-18T08:58:04.282Z,19.40
2018-05-18T09:00:30.044Z,16.87
2018-05-18T09:02:55.808Z,25.13
2018-05-18T09:05:21.558Z,19.00
2018-05-18T09:07:47.329Z,16.33
2018-05-18T09:10:13.081Z,21.30
2018-05-18T09:12:38.839Z,24.03
2018-05-18T09:15:04.586Z,19.27
2018-05-18T09:17:30.355Z,18.53
2018-05-18T09:19:56.114Z,19.03
2018-05-18T09:22:21.881Z,16.33
2018-05-18T09:24:47.637Z,18.17
2018-05-18T09:27:13.398Z,18.20
2018-05-18T09:29:39.150Z,16.40
2018-05-18T09:32:04.916Z,17.17
2018-05-18T09:34:30.672Z,17.87
2018-05-18T09:36:56.423Z,17.80
2018-05-18T09:39:22.186Z,18.40
2018-05-18T09:41:47.929Z,20.37
2018-05-18T09:44:13.685Z,17.77
2018-05-18T09:46:39.434Z,15.37
2018-05-18T09:49:05.226Z,21.47
2018-05-18T09:51:30.982Z,16.03
2018-05-18T09:53:56.766Z,22.50
2018-05-18T09:56:22.513Z,17.03
2018-05-18T09:58:48.282Z,16.07
2018-05-18T10:01:14.063Z,17.60
2018-05-18T10:03:39.837Z,19.43
2018-05-18T10:06:05.594Z,17.53
2018-05-18T10:08:31.370Z,19.07
2018-05-18T10:10:57.136Z,22.50
2018-05-18T10:13:22.890Z,14.73
2018-05-18T10:15:48.657Z,18.33
2018-05-18T10:18:14.401Z,18.40
2018-05-18T10:20:40.162Z,11.73
2018-05-18T10:23:05.918Z,20.80
2018-05-18T10:25:31.685Z,17.10
2018-05-18T10:27:57.453Z,13.67
2018-05-18T10:30:28.201Z,18.70
2018-05-18T10:32:53.970Z,17.23
2018-05-18T10:35:19.729Z,18.90
2018-05-18T10:37:45.486Z,14.87
2018-05-18T10:40:11.250Z,16.50
2018-05-18T10:42:36.994Z,14.07
2018-05-18T10:45:02.776Z,12.50
2018-05-18T10:47:28.525Z,15.93
2018-05-18T10:49:54.298Z,13.33
2018-05-18T10:52:20.057Z,15.50
2018-05-18T10:54:45.813Z,16.70
2018-05-18T10:57:11.573Z,12.10
2018-05-18T10:59:37.338Z,14.70
2018-05-18T11:02:03.102Z,15.67
2018-05-18T11:04:28.857Z,13.40
2018-05-18T11:06:54.637Z,12.27
2018-05-18T11:09:20.397Z,12.37
2018-05-18T11:11:46.170Z,15.20
2018-05-18T11:14:11.952Z,12.00
2018-05-18T11:16:37.693Z,15.83
2018-05-18T11:19:03.491Z,12.93
2018-05-18T11:21:29.261Z,11.07
2018-05-18T11:23:55.026Z,13.17
2018-05-18T11:26:20.859Z,12.57
2018-05-18T11:28:46.586Z,11.87
2018-05-18T11:31:12.350Z,12.03
2018-05-18T11:33:38.123Z,10.70
2018-05-18T11:36:03.892Z,12.17
2018-05-18T11:38:29.686Z,10.40
2018-05-18T11:40:55.450Z,10.10
2018-05-18T11:43:21.226Z,10.83
2018-05-18T11:45:46.982Z,13.13
2018-05-18T11:48:12.758Z,11.17
2018-05-18T11:50:38.550Z,9.63
2018-05-18T11:53:04.405Z,11.63
2018-05-18T11:55:30.161Z,11.60
2018-05-18T11:57:55.933Z,10.90
2018-05-18T12:00:21.693Z,11.90
2018-05-18T12:02:47.467Z,11.10
2018-05-18T12:05:13.229Z,13.97
2018-05-18T12:07:42.432Z,11.83
2018-05-18T12:10:12.071Z,10.10
2018-05-18T12:12:41.837Z,12.07
2018-05-18T12:15:11.554Z,14.43
2018-05-18T12:17:41.489Z,10.87
2018-05-18T12:20:11.495Z,9.83
2018-05-18T12:22:41.415Z,10.50
2018-05-18T12:25:07.178Z,9.23
2018-05-18T12:27:32.937Z,8.30
2018-05-18T12:29:58.704Z,8.50
2018-05-18T12:32:24.462Z,8.23
2018-05-18T12:34:50.217Z,8.63
2018-05-18T12:37:15.986Z,9.40
2018-05-18T12:39:41.757Z,8.10
2018-05-18T12:42:07.524Z,10.87
2018-05-18T12:44:33.297Z,7.70
2018-05-18T12:46:59.071Z,9.10
2018-05-18T12:49:24.847Z,9.90
2018-05-18T12:51:50.661Z,8.00
2018-05-18T12:54:16.434Z,9.00
2018-05-18T12:56:42.197Z,7.57
2018-05-18T12:59:08.988Z,8.70
2018-05-18T13:01:34.744Z,9.20
2018-05-18T13:04:00.509Z,7.50
2018-05-18T13:06:26.262Z,7.90
2018-05-18T13:08:52.045Z,8.17
2018-05-18T13:11:17.801Z,7.13
2018-05-18T13:13:43.559Z,7.60
2018-05-18T13:16:09.361Z,6.60
2018-05-18T13:18:35.123Z,10.10
2018-05-18T13:21:00.898Z,8.93
2018-05-18T13:23:26.657Z,8.00
2018-05-18T13:25:52.421Z,7.07
2018-05-18T13:28:18.193Z,10.90
2018-05-18T13:30:43.961Z,8.43
2018-05-18T13:33:09.710Z,9.97
2018-05-18T13:35:35.490Z,7.33
2018-05-18T13:38:01.251Z,10.53
2018-05-18T13:40:27.017Z,12.70
2018-05-18T13:42:52.785Z,9.03
2018-05-18T13:45:18.538Z,7.33
2018-05-18T13:47:44.297Z,9.63
2018-05-18T13:50:10.070Z,13.23
2018-05-18T13:52:35.835Z,8.80
2018-05-18T13:55:01.600Z,8.07
2018-05-18T13:57:27.387Z,10.20
2018-05-18T13:59:53.146Z,7.17
2018-05-18T14:02:18.922Z,10.43
2018-05-18T14:04:44.692Z,9.17
2018-05-18T14:07:10.538Z,9.47
2018-05-18T14:09:36.282Z,8.77
2018-05-18T14:12:02.038Z,10.00
2018-05-18T14:14:27.812Z,10.50
2018-05-18T14:16:53.596Z,10.13
2018-05-18T14:19:19.348Z,10.77
2018-05-18T14:21:45.169Z,11.40
2018-05-18T14:24:10.966Z,12.40
2018-05-18T14:26:36.726Z,8.77
2018-05-18T14:29:02.498Z,9.40
2018-05-18T14:31:28.285Z,8.73
2018-05-18T14:33:54.093Z,12.27
2018-05-18T14:36:19.846Z,12.07
2018-05-18T14:38:45.610Z,9.27
2018-05-18T14:41:11.363Z,9.90
2018-05-18T14:43:37.142Z,11.43
2018-05-18T14:46:02.893Z,12.30
2018-05-18T14:48:28.668Z,8.50
2018-05-18T14:50:54.424Z,7.73
2018-05-18T14:53:20.199Z,10.90
2018-05-18T14:55:45.957Z,9.60
2018-05-18T14:58:11.721Z,9.77
2018-05-18T15:00:37.481Z,7.50
2018-05-18T15:03:03.269Z,9.57
2018-05-18T15:05:29.025Z,10.37
2018-05-18T15:07:54.779Z,10.97
2018-05-18T15:10:20.530Z,8.87
2018-05-18T15:12:46.289Z,9.27
2018-05-18T15:15:12.038Z,12.93
2018-05-18T15:17:37.800Z,10.87
2018-05-18T15:20:03.565Z,10.63
2018-05-18T15:22:29.342Z,9.77
2018-05-18T15:24:55.097Z,10.10
2018-05-18T15:27:20.845Z,11.47
2018-05-18T15:29:46.618Z,8.80
2018-05-18T15:32:12.370Z,7.30
2018-05-18T15:34:38.121Z,14.87
2018-05-18T15:37:03.871Z,8.17
2018-05-18T15:39:29.641Z,11.47
2018-05-18T15:41:55.397Z,8.40
2018-05-18T15:44:21.169Z,8.40
2018-05-18T15:46:46.925Z,8.90
2018-05-18T15:49:12.736Z,9.53
2018-05-18T15:51:38.490Z,10.13
2018-05-18T15:54:04.256Z,10.13
2018-05-18T15:56:30.014Z,8.23
2018-05-18T15:58:55.803Z,10.60
2018-05-18T16:01:21.593Z,11.00
2018-05-18T16:03:47.358Z,15.27
2018-05-18T16:06:13.114Z,10.63
2018-05-18T16:08:38.870Z,10.27
2018-05-18T16:11:04.648Z,10.93
2018-05-18T16:13:30.401Z,9.20
2018-05-18T16:15:56.163Z,10.13
2018-05-18T16:18:21.918Z,16.30
2018-05-18T16:20:47.718Z,12.90
2018-05-18T16:23:13.476Z,11.93
2018-05-18T16:25:39.249Z,14.33
2018-05-18T16:28:05.022Z,9.10
2018-05-18T16:30:30.777Z,12.17
2018-05-18T16:32:56.535Z,18.50
2018-05-18T16:35:22.293Z,11.30
2018-05-18T16:37:48.041Z,8.47
2018-05-18T16:40:13.832Z,13.80
2018-05-18T16:42:39.590Z,14.13
2018-05-18T16:45:05.406Z,8.87
2018-05-18T16:47:31.165Z,9.10
2018-05-18T16:49:56.914Z,8.37
2018-05-18T16:52:22.678Z,8.77
2018-05-18T16:54:48.443Z,11.30
2018-05-18T16:57:14.216Z,9.93
2018-05-18T16:59:39.971Z,8.67
2018-05-18T17:02:05.745Z,12.63
2018-05-18T17:04:31.497Z,9.27
2018-05-18T17:06:57.257Z,13.10
2018-05-18T17:09:23.028Z,10.17
2018-05-18T17:11:48.802Z,15.90
2018-05-18T17:14:14.551Z,13.10
2018-05-18T17:16:40.310Z,9.90
2018-05-18T17:19:06.085Z,9.13
2018-05-18T17:21:31.866Z,9.30
2018-05-18T17:23:57.625Z,9.60
2018-05-18T17:26:23.415Z,9.10
2018-05-18T17:28:49.170Z,13.90
2018-05-18T17:31:14.918Z,8.57
2018-05-18T17:33:40.677Z,11.73
2018-05-18T17:36:06.438Z,9.03
2018-05-18T17:38:32.216Z,8.90
2018-05-18T17:40:57.994Z,9.37
2018-05-18T17:43:23.783Z,9.70
2018-05-18T17:45:49.564Z,9.83
2018-05-18T17:48:15.325Z,9.90
2018-05-18T17:50:41.133Z,11.30
2018-05-18T17:53:06.917Z,12.33
2018-05-18T17:55:32.681Z,9.40
2018-05-18T17:57:58.437Z,9.43
2018-05-18T18:00:24.185Z,10.73
2018-05-18T18:02:49.950Z,9.07
2018-05-18T18:05:15.705Z,10.93
2018-05-18T18:07:41.457Z,7.90
2018-05-18T18:10:07.226Z,8.03
2018-05-18T18:12:32.969Z,9.77
2018-05-18T18:14:58.744Z,8.77
2018-05-18T18:17:24.501Z,7.67
2018-05-18T18:19:50.289Z,10.93
2018-05-18T18:22:16.051Z,8.03
2018-05-18T18:24:41.810Z,8.03
2018-05-18T18:27:07.649Z,13.93
2018-05-18T18:29:33.353Z,8.43
2018-05-18T18:31:59.129Z,9.63
2018-05-18T18:34:24.890Z,8.80
2018-05-18T18:36:50.637Z,8.87
2018-05-18T18:39:16.398Z,8.07
2018-05-18T18:41:42.158Z,7.67
2018-05-18T18:44:07.926Z,8.90
2018-05-18T18:46:33.694Z,9.77
2018-05-18T18:48:59.444Z,9.47
2018-05-18T18:51:25.204Z,8.63
2018-05-18T18:53:50.964Z,10.10
2018-05-18T18:56:16.725Z,8.63
2018-05-18T18:58:42.483Z,10.03
2018-05-18T19:01:08.261Z,9.40
2018-05-18T19:03:34.110Z,9.20
2018-05-18T19:05:59.798Z,9.50
2018-05-18T19:08:25.638Z,10.87
2018-05-18T19:10:51.338Z,11.33
2018-05-18T19:13:17.093Z,10.70
2018-05-18T19:15:42.850Z,11.10
2018-05-18T19:18:08.603Z,8.60
2018-05-18T19:20:34.374Z,11.90
2018-05-18T19:23:00.134Z,12.90
2018-05-18T19:25:25.906Z,9.37
2018-05-18T19:27:51.664Z,10.93
2018-05-18T19:30:17.417Z,12.23
2018-05-18T19:32:43.166Z,10.03
2018-05-18T19:35:08.922Z,11.63
2018-05-18T19:37:34.677Z,10.43
2018-05-18T19:40:00.429Z,11.10
2018-05-18T19:42:26.188Z,9.90
2018-05-18T19:44:51.937Z,9.70
2018-05-18T19:47:17.693Z,10.97
2018-05-18T19:49:43.441Z,11.00
2018-05-18T19:52:09.201Z,11.13
2018-05-18T19:54:34.946Z,12.50
2018-05-18T19:57:00.713Z,10.40
2018-05-18T19:59:26.501Z,12.30
2018-05-18T20:01:52.266Z,11.83
2018-05-18T20:04:18.029Z,9.73
2018-05-18T20:06:44.052Z,12.03
2018-05-18T20:09:09.809Z,12.00
2018-05-18T20:11:35.618Z,10.27
2018-05-18T20:14:01.379Z,14.80
2018-05-18T20:16:27.125Z,11.70
2018-05-18T20:18:52.893Z,11.20
2018-05-18T20:21:18.675Z,12.53
2018-05-18T20:23:44.441Z,11.10
2018-05-18T20:26:10.205Z,14.60
2018-05-18T20:28:35.973Z,11.47
2018-05-18T20:31:01.745Z,12.23
2018-05-18T20:33:27.532Z,12.03
2018-05-18T20:35:53.289Z,13.63
2018-05-18T20:38:26.092Z,11.90
2018-05-18T20:40:51.851Z,14.30
2018-05-18T20:43:17.625Z,11.93
2018-05-18T20:45:43.386Z,11.67
2018-05-18T20:48:09.166Z,11.10
2018-05-18T20:50:34.942Z,11.47
2018-05-18T20:53:00.701Z,11.07
2018-05-18T20:55:26.454Z,9.90
2018-05-18T20:57:52.250Z,11.77
2018-05-18T21:00:18.019Z,16.90
2018-05-18T21:02:43.773Z,13.70
2018-05-18T21:05:09.532Z,11.20
2018-05-18T21:07:35.290Z,11.10
2018-05-18T21:10:01.084Z,15.10
2018-05-18T21:12:26.842Z,14.37
2018-05-18T21:14:52.610Z,11.40
2018-05-18T21:17:18.371Z,10.10
2018-05-18T21:19:44.142Z,13.90
2018-05-18T21:22:09.901Z,12.60
2018-05-18T21:24:35.737Z,12.90
2018-05-18T21:27:04.454Z,13.07
2018-05-18T21:29:30.533Z,10.67
2018-05-18T21:31:56.298Z,16.67
2018-05-18T21:34:22.071Z,14.27
2018-05-18T21:36:47.829Z,14.87
2018-05-18T21:39:13.594Z,18.00
2018-05-18T21:41:39.357Z,13.80
2018-05-18T21:44:05.149Z,11.83
2018-05-18T21:46:30.901Z,12.53
2018-05-18T21:48:56.641Z,12.13
2018-05-18T21:51:22.405Z,14.23
2018-05-18T21:53:48.174Z,13.40
2018-05-18T21:56:14.025Z,11.73
2018-05-18T21:58:40.606Z,13.60
2018-05-18T22:01:06.395Z,14.70
2018-05-18T22:03:32.149Z,15.63
2018-05-18T22:05:57.905Z,14.60
2018-05-18T22:08:24.675Z,16.63
2018-05-18T22:10:50.451Z,12.30
2018-05-18T22:13:16.244Z,12.10
2018-05-18T22:15:42.002Z,13.13
2018-05-18T22:18:14.619Z,15.47
2018-05-18T22:20:40.394Z,18.40
2018-05-18T22:23:06.154Z,18.83
2018-05-18T22:25:31.937Z,13.40
2018-05-18T22:27:57.692Z,15.93
2018-05-18T22:30:25.216Z,12.83
2018-05-18T22:32:50.997Z,13.37
2018-05-18T22:35:16.751Z,13.20
2018-05-18T22:37:42.921Z,12.83
2018-05-18T22:40:08.703Z,14.60
2018-05-18T22:42:34.477Z,13.47
2018-05-18T22:45:03.483Z,13.80
2018-05-18T22:47:32.439Z,16.03
2018-05-18T22:49:58.267Z,14.90
2018-05-18T22:52:23.997Z,15.70
2018-05-18T22:54:49.750Z,12.63
2018-05-18T22:57:15.514Z,10.93
2018-05-18T22:59:41.267Z,10.40
2018-05-18T23:02:07.018Z,12.43
2018-05-18T23:04:32.770Z,12.07
2018-05-18T23:06:58.534Z,12.03
2018-05-18T23:09:24.297Z,12.30
2018-05-18T23:11:50.866Z,13.17
2018-05-18T23:14:16.613Z,12.40
2018-05-18T23:16:42.361Z,14.33
2018-05-18T23:19:08.113Z,12.07
2018-05-18T23:21:33.865Z,14.73
2018-05-18T23:23:59.641Z,13.00
2018-05-18T23:26:25.403Z,14.00
2018-05-18T23:28:51.185Z,14.53
2018-05-18T23:31:16.955Z,16.97
2018-05-18T23:33:42.726Z,18.00
2018-05-18T23:36:08.504Z,14.40
2018-05-18T23:38:34.268Z,17.83
2018-05-18T23:41:00.025Z,12.97
2018-05-18T23:43:25.794Z,15.90
2018-05-18T23:45:51.549Z,14.77
2018-05-18T23:48:17.309Z,13.87
2018-05-18T23:50:43.069Z,17.00
2018-05-18T23:53:08.846Z,13.20
2018-05-18T23:55:34.605Z,15.77
2018-05-18T23:58:00.376Z,14.47
